createdAt,value
2023-01-17T00:00:48.022Z,97274.72
2023-01-17T00:06:08.201Z,97275.03
2023-01-17T00:11:09.777Z,97267.31
2023-01-17T00:16:11.263Z,97279.63
2023-01-17T00:21:31.313Z,97280.50
2023-01-17T00:26:32.790Z,97280.00
2023-01-17T00:31:34.214Z,97283.88
2023-01-17T00:36:35.674Z,97276.47
2023-01-17T00:41:37.084Z,97275.69
2023-01-17T00:46:57.194Z,97270.53
2023-01-17T00:52:16.999Z,97265.41
2023-01-17T00:57:36.928Z,97256.31
2023-01-17T01:02:57.622Z,97273.00
2023-01-17T01:08:17.642Z,97271.53
2023-01-17T01:13:41.404Z,97274.38
2023-01-17T01:19:01.381Z,97279.69
2023-01-17T01:24:21.342Z,97274.19
2023-01-17T01:29:41.454Z,97271.53
2023-01-17T01:34:42.873Z,97270.19
2023-01-17T01:39:44.282Z,97270.78
2023-01-17T01:44:48.572Z,97269.19
2023-01-17T01:49:50.979Z,97264.38
2023-01-17T01:54:58.821Z,97266.59
2023-01-17T02:00:08.778Z,97266.81
2023-01-17T02:05:12.509Z,97258.63
2023-01-17T02:10:13.946Z,97266.31
2023-01-17T02:15:15.455Z,97258.19
2023-01-17T02:20:38.035Z,97269.63
2023-01-17T02:26:14.541Z,97276.16
2023-01-17T02:31:28.100Z,97269.09
2023-01-17T02:36:36.239Z,97266.78
2023-01-17T02:41:43.328Z,97257.13
2023-01-17T02:46:49.692Z,97250.97
2023-01-17T02:52:10.827Z,97244.50
2023-01-17T02:57:42.637Z,97234.84
2023-01-17T03:02:52.252Z,97244.97
2023-01-17T03:07:54.944Z,97251.53
2023-01-17T03:12:58.542Z,97250.06
2023-01-17T03:18:04.707Z,97240.53
2023-01-17T03:23:06.242Z,97257.28
2023-01-17T03:28:07.662Z,97261.00
2023-01-17T03:33:09.184Z,97265.59
2023-01-17T03:38:10.618Z,97250.59
2023-01-17T03:43:12.135Z,97246.97
2023-01-17T03:48:13.650Z,97260.56
2023-01-17T03:53:15.076Z,97258.53
2023-01-17T03:58:16.519Z,97252.94
2023-01-17T04:03:17.964Z,97257.28
2023-01-17T04:08:19.613Z,97269.13
2023-01-17T04:13:21.013Z,97282.94
2023-01-17T04:18:23.824Z,97283.16
2023-01-17T04:23:25.337Z,97275.72
2023-01-17T04:28:26.877Z,97289.06
2023-01-17T04:33:29.371Z,97279.50
2023-01-17T04:38:30.791Z,97280.56
2023-01-17T04:43:32.625Z,97274.69
2023-01-17T04:48:34.043Z,97281.16
2023-01-17T04:53:35.570Z,97290.66
2023-01-17T04:58:38.197Z,97284.66
2023-01-17T05:03:39.679Z,97283.72
2023-01-17T05:08:41.524Z,97294.97
2023-01-17T05:13:42.925Z,97283.88
2023-01-17T05:18:44.338Z,97291.00
2023-01-17T05:23:46.072Z,97281.09
2023-01-17T05:28:47.504Z,97280.13
2023-01-17T05:33:48.955Z,97274.09
2023-01-17T05:38:50.425Z,97281.78
2023-01-17T05:43:51.868Z,97280.34
2023-01-17T05:48:53.279Z,97286.56
2023-01-17T05:53:54.936Z,97286.13
2023-01-17T05:58:56.347Z,97298.34
2023-01-17T06:03:57.969Z,97306.59
2023-01-17T06:08:59.418Z,97305.88
2023-01-17T06:14:00.845Z,97312.59
2023-01-17T06:19:02.413Z,97310.75
2023-01-17T06:24:04.446Z,97310.84
2023-01-17T06:29:05.925Z,97310.25
2023-01-17T06:34:07.458Z,97315.88
2023-01-17T06:39:10.223Z,97321.03
2023-01-17T06:44:11.761Z,97329.88
2023-01-17T06:49:13.218Z,97341.69
2023-01-17T06:54:14.766Z,97340.75
2023-01-17T06:59:16.179Z,97351.56
2023-01-17T07:04:17.611Z,97366.94
2023-01-17T07:09:19.013Z,97376.47
2023-01-17T07:14:20.535Z,97376.00
2023-01-17T07:19:22.277Z,97386.97
2023-01-17T07:24:23.675Z,97380.53
2023-01-17T07:29:25.254Z,97386.88
2023-01-17T07:34:26.657Z,97394.00
2023-01-17T07:39:28.067Z,97390.25
2023-01-17T07:44:29.556Z,97382.22
2023-01-17T07:49:31.072Z,97396.78
2023-01-17T07:54:32.815Z,97410.19
2023-01-17T07:59:34.594Z,97416.66
2023-01-17T08:04:36.092Z,97425.63
2023-01-17T08:09:37.524Z,97429.88
2023-01-17T08:14:38.946Z,97435.81
2023-01-17T08:19:40.602Z,97430.75
2023-01-17T08:24:42.146Z,97445.31
2023-01-17T08:29:47.096Z,97452.53
2023-01-17T08:34:48.812Z,97456.41
2023-01-17T08:39:50.357Z,97462.91
2023-01-17T08:44:51.797Z,97450.47
2023-01-17T08:49:53.681Z,97468.72
2023-01-17T08:54:55.264Z,97464.59
2023-01-17T08:59:56.661Z,97470.19
2023-01-17T09:04:58.155Z,97467.56
2023-01-17T09:09:59.552Z,97466.97
2023-01-17T09:15:02.362Z,97471.41
2023-01-17T09:20:04.080Z,97483.19
2023-01-17T09:25:08.998Z,97490.72
2023-01-17T09:30:11.033Z,97481.72
2023-01-17T09:35:13.582Z,97493.16
2023-01-17T09:40:19.480Z,97481.19
2023-01-17T09:45:21.354Z,97478.06
2023-01-17T09:50:27.072Z,97486.53
2023-01-17T09:55:48.686Z,97490.81
2023-01-17T10:01:06.807Z,97490.97
2023-01-17T10:06:30.180Z,97479.00
2023-01-17T10:11:49.583Z,97484.22
2023-01-17T10:17:06.011Z,97493.66
2023-01-17T10:22:25.394Z,97488.28
2023-01-17T10:27:35.239Z,97497.03
2023-01-17T10:32:46.427Z,97497.50
2023-01-17T10:37:49.947Z,97496.34
2023-01-17T10:43:19.423Z,97505.41
2023-01-17T10:48:38.737Z,97516.16
2023-01-17T10:53:48.480Z,97515.75
2023-01-17T10:58:54.544Z,97529.81
2023-01-17T11:03:56.182Z,97516.06
2023-01-17T11:09:03.062Z,97511.78
2023-01-17T11:14:14.210Z,97511.09
2023-01-17T11:19:30.433Z,97515.81
2023-01-17T11:24:34.558Z,97507.41
2023-01-17T11:29:40.616Z,97502.59
2023-01-17T11:34:42.125Z,97486.50
2023-01-17T11:39:44.507Z,97503.66
2023-01-17T11:44:46.071Z,97494.00
2023-01-17T11:49:49.028Z,97501.84
2023-01-17T11:54:53.986Z,97501.38
2023-01-17T12:00:08.824Z,97512.81
2023-01-17T12:05:23.564Z,97509.28
2023-01-17T12:10:43.287Z,97507.78
2023-01-17T12:16:31.740Z,97511.34
2023-01-17T12:21:38.537Z,97501.31
2023-01-17T12:27:06.179Z,97493.78
2023-01-17T12:32:38.424Z,97489.97
2023-01-17T12:37:43.975Z,97501.03
2023-01-17T12:43:08.111Z,97495.00
2023-01-17T12:48:16.591Z,97499.03
2023-01-17T12:53:56.450Z,97491.31
2023-01-17T12:59:35.096Z,97496.53
2023-01-17T13:04:57.659Z,97492.66
2023-01-17T13:10:20.164Z,97512.47
2023-01-17T13:15:26.991Z,97522.19
2023-01-17T13:20:49.166Z,97530.56
2023-01-17T13:25:50.901Z,97533.06
2023-01-17T13:31:07.876Z,97544.19
2023-01-17T13:36:25.776Z,97564.44
2023-01-17T13:41:45.094Z,97582.66
2023-01-17T13:47:27.462Z,97586.66
2023-01-17T13:52:33.209Z,97597.50
2023-01-17T13:57:42.191Z,97582.19
2023-01-17T14:02:43.852Z,97596.00
2023-01-17T14:08:07.888Z,97598.91
2023-01-17T14:13:44.653Z,97636.81
2023-01-17T14:18:46.153Z,97646.94
2023-01-17T14:23:50.287Z,97662.19
2023-01-17T14:28:52.460Z,97690.28
2023-01-17T14:33:54.264Z,97694.63
2023-01-17T14:38:55.766Z,97706.09
2023-01-17T14:43:59.545Z,97705.88
2023-01-17T14:49:04.275Z,97696.69
2023-01-17T14:54:21.131Z,97704.69
2023-01-17T14:59:22.771Z,97708.25
2023-01-17T15:04:27.341Z,97713.41
2023-01-17T15:09:35.072Z,97717.19
2023-01-17T15:14:39.909Z,97716.38
2023-01-17T15:19:43.718Z,97721.19
2023-01-17T15:24:46.921Z,97716.88
2023-01-17T15:29:48.847Z,97704.66
2023-01-17T15:34:51.521Z,97700.69
2023-01-17T15:40:03.244Z,97703.22
2023-01-17T15:45:07.597Z,97708.34
2023-01-17T15:50:25.687Z,97699.50
2023-01-17T15:55:35.525Z,97696.09
2023-01-17T16:00:39.165Z,97689.63
2023-01-17T16:05:44.069Z,97703.22
2023-01-17T16:10:45.526Z,97698.47
2023-01-17T16:15:47.140Z,97693.31
2023-01-17T16:20:55.117Z,97680.81
2023-01-17T16:25:56.625Z,97681.81
2023-01-17T16:30:58.139Z,97679.41
2023-01-17T16:35:59.659Z,97674.06
2023-01-17T16:41:03.958Z,97671.00
2023-01-17T16:46:05.934Z,97663.16
2023-01-17T16:51:08.060Z,97667.09
2023-01-17T16:56:13.635Z,97663.69
2023-01-17T17:01:17.624Z,97671.41
2023-01-17T17:06:19.126Z,97681.56
2023-01-17T17:11:25.510Z,97687.03
2023-01-17T17:16:32.770Z,97681.44
2023-01-17T17:21:36.787Z,97677.06
2023-01-17T17:26:39.261Z,97673.00
2023-01-17T17:31:42.934Z,97686.63
2023-01-17T17:36:44.520Z,97699.13
2023-01-17T17:41:46.082Z,97694.19
2023-01-17T17:46:49.343Z,97686.16
2023-01-17T17:51:50.805Z,97686.00
2023-01-17T17:56:52.211Z,97690.94
2023-01-17T18:01:53.924Z,97686.69
2023-01-17T18:06:57.281Z,97713.66
2023-01-17T18:11:58.859Z,97733.31
2023-01-17T18:17:00.358Z,97732.09
2023-01-17T18:22:03.447Z,97726.72
2023-01-17T18:27:05.417Z,97721.78
2023-01-17T18:32:06.938Z,97721.44
2023-01-17T18:37:08.398Z,97740.28
2023-01-17T18:42:11.895Z,97742.81
2023-01-17T18:47:13.435Z,97737.63
2023-01-17T18:52:15.018Z,97744.72
2023-01-17T18:57:16.482Z,97747.53
2023-01-17T19:02:19.532Z,97757.44
2023-01-17T19:07:21.668Z,97758.75
2023-01-17T19:12:23.112Z,97766.72
2023-01-17T19:17:24.522Z,97794.94
2023-01-17T19:22:25.939Z,97772.25
2023-01-17T19:27:27.449Z,97731.06
2023-01-17T19:32:28.946Z,97740.63
2023-01-17T19:37:30.670Z,97751.28
2023-01-17T19:42:32.108Z,97753.75
2023-01-17T19:47:34.021Z,97749.13
2023-01-17T19:52:36.081Z,97741.16
2023-01-17T19:57:37.551Z,97727.09
2023-01-17T20:02:39.505Z,97732.69
2023-01-17T20:07:40.956Z,97733.09
2023-01-17T20:12:42.442Z,97734.94
2023-01-17T20:17:44.167Z,97741.81
2023-01-17T20:22:45.996Z,97747.66
2023-01-17T20:27:47.404Z,97750.31
2023-01-17T20:32:48.834Z,97754.19
2023-01-17T20:37:53.431Z,97749.22
2023-01-17T20:42:54.852Z,97747.78
2023-01-17T20:47:56.519Z,97748.81
2023-01-17T20:52:58.166Z,97747.59
2023-01-17T20:57:59.779Z,97750.25
2023-01-17T21:03:01.650Z,97757.28
2023-01-17T21:08:03.918Z,97749.31
2023-01-17T21:13:05.327Z,97731.47
2023-01-17T21:18:06.930Z,97734.47
2023-01-17T21:23:10.130Z,97743.63
2023-01-17T21:28:11.612Z,97729.00
2023-01-17T21:33:13.230Z,97718.94
2023-01-17T21:38:14.921Z,97692.06
2023-01-17T21:43:16.365Z,97707.13
2023-01-17T21:48:17.794Z,97722.19
2023-01-17T21:53:19.272Z,97735.28
2023-01-17T21:58:39.084Z,97732.22
2023-01-17T22:03:40.488Z,97722.44
2023-01-17T22:08:41.945Z,97713.50
2023-01-17T22:13:44.631Z,97701.13
2023-01-17T22:18:46.867Z,97706.53
2023-01-17T22:23:51.604Z,97725.22
2023-01-17T22:28:54.074Z,97722.56
2023-01-17T22:34:01.704Z,97709.78
2023-01-17T22:39:03.241Z,97709.28
2023-01-17T22:44:08.479Z,97706.72
2023-01-17T22:49:13.416Z,97715.69
2023-01-17T22:54:14.921Z,97699.72
2023-01-17T22:59:16.421Z,97704.19
2023-01-17T23:04:17.886Z,97687.50
2023-01-17T23:09:19.311Z,97673.97
2023-01-17T23:14:23.432Z,97672.88
2023-01-17T23:19:26.998Z,97670.06
2023-01-17T23:24:28.494Z,97684.13
2023-01-17T23:29:29.896Z,97689.13
2023-01-17T23:34:31.329Z,97678.88
2023-01-17T23:39:32.762Z,97677.91
2023-01-17T23:44:34.167Z,97671.13
2023-01-17T23:49:35.577Z,97653.38
2023-01-17T23:54:38.669Z,97656.69
2023-01-17T23:59:40.095Z,97646.13
